ASL83E LYBE-LMML
Flight info
| Callsign | ASL83E |
|---|---|
| Flight time | 1h 33m |
| Altitude | 36000 |
| Route | VAL DCT VEBAR DCT AIOSA/N0444F370 DCT KUTID DCT OBAXU DCT NELDA DCT DIRKA N982 GZO |
| Aircraft | A320/M-SDE3FGHIRWY/LB1 |
Departure
| Time | 2026-04-27 09:28 |
|---|---|
| Airport | Belgrade Nikola Tesla Airport (LYBE) |
Arrival
| Time | 2026-04-27 11:02 |
|---|---|
| Airport | Malta International Airport (LMML) |
| Time | Latitude | Longitude | Altitude | Speed | Heading |
|---|---|---|---|---|---|
| 2026-04-27 09:03 | 44.81896 | 20.29238 | 321 ft | 0 kts | 302° |
| 2026-04-27 09:16 | 44.81891 | 20.29250 | 323 ft | 3 kts | 302° |
| 2026-04-27 09:16 | 44.81880 | 20.29275 | 322 ft | 3 kts | 302° |
| 2026-04-27 09:16 | 44.81869 | 20.29300 | 323 ft | 3 kts | 320° |
| 2026-04-27 09:16 | 44.81853 | 20.29308 | 322 ft | 1 kts | 32° |
| 2026-04-27 09:21 | 44.81857 | 20.29311 | 322 ft | 2 kts | 32° |
| 2026-04-27 09:21 | 44.81871 | 20.29324 | 321 ft | 3 kts | 32° |
| 2026-04-27 09:22 | 44.81897 | 20.29347 | 324 ft | 5 kts | 32° |
| 2026-04-27 09:22 | 44.81934 | 20.29380 | 324 ft | 7 kts | 32° |
| 2026-04-27 09:22 | 44.81983 | 20.29423 | 324 ft | 9 kts | 32° |
| 2026-04-27 09:22 | 44.82042 | 20.29475 | 324 ft | 11 kts | 31° |
| 2026-04-27 09:23 | 44.82112 | 20.29530 | 325 ft | 12 kts | 13° |
| 2026-04-27 09:23 | 44.82172 | 20.29460 | 326 ft | 13 kts | 302° |
| 2026-04-27 09:23 | 44.82222 | 20.29347 | 325 ft | 15 kts | 301° |
| 2026-04-27 09:23 | 44.82281 | 20.29215 | 324 ft | 17 kts | 302° |
| 2026-04-27 09:24 | 44.82348 | 20.29065 | 323 ft | 19 kts | 302° |
| 2026-04-27 09:24 | 44.82419 | 20.28907 | 324 ft | 2 kts | 311° |
| 2026-04-27 09:24 | 44.82433 | 20.28886 | 324 ft | 4 kts | 314° |
| 2026-04-27 09:24 | 44.82458 | 20.28861 | 325 ft | 5 kts | 333° |
| 2026-04-27 09:25 | 44.82499 | 20.28857 | 325 ft | 7 kts | 9° |
| 2026-04-27 09:25 | 44.82545 | 20.28888 | 325 ft | 8 kts | 37° |
| 2026-04-27 09:25 | 44.82589 | 20.28956 | 325 ft | 10 kts | 55° |
| 2026-04-27 09:25 | 44.82596 | 20.28973 | 325 ft | 0 kts | 60° |
| 2026-04-27 09:27 | 44.82602 | 20.28990 | 324 ft | 4 kts | 66° |
| 2026-04-27 09:27 | 44.82619 | 20.29092 | 324 ft | 17 kts | 84° |
| 2026-04-27 09:27 | 44.82558 | 20.29309 | 322 ft | 43 kts | 122° |
| 2026-04-27 09:27 | 44.82279 | 20.29939 | 323 ft | 106 kts | 122° |
| 2026-04-27 09:28 | 44.81799 | 20.31017 | 326 ft | 152 kts | 122° |
| 2026-04-27 09:28 | 44.81216 | 20.32349 | 792 ft | 156 kts | 121° |
| 2026-04-27 09:28 | 44.80629 | 20.33613 | 1487 ft | 155 kts | 131° |
| 2026-04-27 09:28 | 44.79712 | 20.34445 | 2094 ft | 163 kts | 163° |
| 2026-04-27 09:29 | 44.78555 | 20.34740 | 2527 ft | 180 kts | 173° |
| 2026-04-27 09:29 | 44.77234 | 20.34897 | 2896 ft | 199 kts | 175° |
| 2026-04-27 09:29 | 44.75769 | 20.35030 | 3216 ft | 224 kts | 176° |
| 2026-04-27 09:29 | 44.74168 | 20.35174 | 3905 ft | 235 kts | 175° |
| 2026-04-27 09:30 | 44.72511 | 20.35353 | 4619 ft | 243 kts | 175° |
| 2026-04-27 09:30 | 44.70756 | 20.35276 | 5107 ft | 265 kts | 196° |
| 2026-04-27 09:30 | 44.69127 | 20.34019 | 5717 ft | 274 kts | 222° |
| 2026-04-27 09:30 | 44.67671 | 20.32266 | 6556 ft | 277 kts | 224° |
| 2026-04-27 09:31 | 44.66192 | 20.30493 | 7396 ft | 281 kts | 224° |
| 2026-04-27 09:31 | 44.64693 | 20.28706 | 8199 ft | 284 kts | 223° |
| 2026-04-27 09:31 | 44.63173 | 20.26903 | 9029 ft | 288 kts | 223° |
| 2026-04-27 09:31 | 44.61634 | 20.25082 | 9841 ft | 291 kts | 223° |
| 2026-04-27 09:32 | 44.60292 | 20.23495 | 10398 ft | 298 kts | 223° |
| 2026-04-27 09:32 | 44.58663 | 20.21567 | 10730 ft | 317 kts | 223° |
| 2026-04-27 09:32 | 44.56920 | 20.19499 | 10946 ft | 337 kts | 223° |
| 2026-04-27 09:32 | 44.55104 | 20.17353 | 11495 ft | 344 kts | 223° |
| 2026-04-27 09:33 | 44.53261 | 20.15183 | 12148 ft | 348 kts | 223° |
| 2026-04-27 09:33 | 44.51401 | 20.12995 | 12821 ft | 350 kts | 223° |
| 2026-04-27 09:33 | 44.49525 | 20.10790 | 13484 ft | 353 kts | 223° |
| 2026-04-27 09:33 | 44.47637 | 20.08570 | 14138 ft | 356 kts | 223° |
| 2026-04-27 09:34 | 44.45734 | 20.06326 | 14734 ft | 359 kts | 223° |
| 2026-04-27 09:34 | 44.43820 | 20.04068 | 15331 ft | 361 kts | 223° |
| 2026-04-27 09:34 | 44.41892 | 20.01799 | 15921 ft | 363 kts | 223° |
| 2026-04-27 09:34 | 44.39950 | 19.99517 | 16512 ft | 366 kts | 223° |
| 2026-04-27 09:35 | 44.37993 | 19.97223 | 17060 ft | 369 kts | 223° |
| 2026-04-27 09:35 | 44.36021 | 19.94913 | 17633 ft | 371 kts | 223° |
| 2026-04-27 09:35 | 44.34036 | 19.92585 | 18205 ft | 374 kts | 223° |
| 2026-04-27 09:35 | 44.32038 | 19.90244 | 18765 ft | 376 kts | 223° |
| 2026-04-27 09:36 | 44.30027 | 19.87890 | 19281 ft | 379 kts | 223° |
| 2026-04-27 09:36 | 44.28004 | 19.85521 | 19813 ft | 380 kts | 223° |
| 2026-04-27 09:36 | 44.25969 | 19.83147 | 20345 ft | 382 kts | 222° |
| 2026-04-27 09:36 | 44.23921 | 19.80764 | 20864 ft | 384 kts | 222° |
| 2026-04-27 09:37 | 44.21864 | 19.78374 | 21345 ft | 386 kts | 222° |
| 2026-04-27 09:37 | 44.19791 | 19.75968 | 21812 ft | 389 kts | 222° |
| 2026-04-27 09:37 | 44.17707 | 19.73547 | 22273 ft | 391 kts | 222° |
| 2026-04-27 09:37 | 44.15612 | 19.71111 | 22725 ft | 393 kts | 222° |
| 2026-04-27 09:38 | 44.13504 | 19.68663 | 23203 ft | 396 kts | 222° |
| 2026-04-27 09:38 | 44.11384 | 19.66205 | 23676 ft | 398 kts | 222° |
| 2026-04-27 09:38 | 44.09254 | 19.63736 | 24086 ft | 400 kts | 222° |
| 2026-04-27 09:38 | 44.07112 | 19.61257 | 24451 ft | 402 kts | 222° |
| 2026-04-27 09:39 | 44.04955 | 19.58766 | 24777 ft | 404 kts | 222° |
| 2026-04-27 09:39 | 44.02784 | 19.56265 | 25134 ft | 407 kts | 222° |
| 2026-04-27 09:39 | 44.00598 | 19.53750 | 25507 ft | 409 kts | 222° |
| 2026-04-27 09:39 | 43.98403 | 19.51222 | 25861 ft | 411 kts | 222° |
| 2026-04-27 09:40 | 43.96226 | 19.48716 | 26195 ft | 413 kts | 222° |
| 2026-04-27 09:40 | 43.93981 | 19.46134 | 26550 ft | 415 kts | 222° |
| 2026-04-27 09:40 | 43.91753 | 19.43574 | 26891 ft | 417 kts | 222° |
| 2026-04-27 09:40 | 43.89514 | 19.41007 | 27238 ft | 419 kts | 222° |
| 2026-04-27 09:41 | 43.87262 | 19.38423 | 27567 ft | 422 kts | 222° |
| 2026-04-27 09:41 | 43.85028 | 19.35857 | 27903 ft | 424 kts | 222° |
| 2026-04-27 09:41 | 43.82751 | 19.33247 | 28256 ft | 426 kts | 222° |
| 2026-04-27 09:41 | 43.80462 | 19.30632 | 28621 ft | 428 kts | 222° |
| 2026-04-27 09:42 | 43.78159 | 19.28007 | 28977 ft | 430 kts | 222° |
| 2026-04-27 09:42 | 43.75841 | 19.25370 | 29298 ft | 432 kts | 222° |
| 2026-04-27 09:42 | 43.73516 | 19.22726 | 29672 ft | 433 kts | 222° |
| 2026-04-27 09:42 | 43.71194 | 19.20081 | 30154 ft | 432 kts | 222° |
| 2026-04-27 09:43 | 43.68875 | 19.17443 | 30587 ft | 431 kts | 222° |
| 2026-04-27 09:43 | 43.66566 | 19.14822 | 31031 ft | 429 kts | 222° |
| 2026-04-27 09:43 | 43.64263 | 19.12213 | 31473 ft | 427 kts | 222° |
| 2026-04-27 09:43 | 43.61968 | 19.09616 | 31912 ft | 426 kts | 222° |
| 2026-04-27 09:44 | 43.59684 | 19.07033 | 32322 ft | 424 kts | 222° |
| 2026-04-27 09:44 | 43.57408 | 19.04460 | 32751 ft | 422 kts | 222° |
| 2026-04-27 09:44 | 43.55142 | 19.01891 | 33172 ft | 421 kts | 223° |
| 2026-04-27 09:44 | 43.52880 | 18.99332 | 33607 ft | 420 kts | 223° |
| 2026-04-27 09:45 | 43.50627 | 18.96785 | 34048 ft | 418 kts | 223° |
| 2026-04-27 09:45 | 43.48379 | 18.94252 | 34432 ft | 417 kts | 223° |
| 2026-04-27 09:45 | 43.46135 | 18.91730 | 34770 ft | 416 kts | 223° |
| 2026-04-27 09:45 | 43.43894 | 18.89212 | 35083 ft | 416 kts | 223° |
| 2026-04-27 09:46 | 43.41655 | 18.86696 | 35380 ft | 415 kts | 223° |
| 2026-04-27 09:46 | 43.39417 | 18.84182 | 35640 ft | 416 kts | 223° |
| 2026-04-27 09:46 | 43.37175 | 18.81669 | 35914 ft | 416 kts | 223° |
| 2026-04-27 09:46 | 43.34932 | 18.79158 | 36133 ft | 416 kts | 223° |
| 2026-04-27 09:47 | 43.32678 | 18.76638 | 36184 ft | 421 kts | 223° |
| 2026-04-27 09:47 | 43.28098 | 18.71518 | 36187 ft | 426 kts | 223° |
| 2026-04-27 09:48 | 43.23461 | 18.66338 | 36178 ft | 427 kts | 223° |
| 2026-04-27 09:48 | 43.18873 | 18.61238 | 36173 ft | 427 kts | 222° |
| 2026-04-27 09:49 | 43.15002 | 18.56944 | 36168 ft | 427 kts | 222° |
| 2026-04-27 09:49 | 43.10382 | 18.51819 | 36170 ft | 428 kts | 222° |
| 2026-04-27 09:50 | 43.05753 | 18.46698 | 36157 ft | 428 kts | 222° |
| 2026-04-27 09:50 | 43.01118 | 18.41579 | 36148 ft | 428 kts | 222° |
| 2026-04-27 09:51 | 42.96477 | 18.36469 | 36157 ft | 428 kts | 222° |
| 2026-04-27 09:51 | 42.91833 | 18.31365 | 36155 ft | 429 kts | 222° |
| 2026-04-27 09:52 | 42.87192 | 18.26258 | 36159 ft | 429 kts | 222° |
| 2026-04-27 09:52 | 42.82540 | 18.21163 | 36161 ft | 429 kts | 222° |
| 2026-04-27 09:53 | 42.77879 | 18.16072 | 36166 ft | 430 kts | 222° |
| 2026-04-27 09:53 | 42.73213 | 18.10991 | 36153 ft | 430 kts | 222° |
| 2026-04-27 09:54 | 42.68538 | 18.05914 | 36162 ft | 430 kts | 222° |
| 2026-04-27 09:54 | 42.63868 | 18.00824 | 36164 ft | 430 kts | 222° |
| 2026-04-27 09:55 | 42.59191 | 17.95750 | 36157 ft | 431 kts | 222° |
| 2026-04-27 09:55 | 42.52157 | 17.88141 | 36160 ft | 431 kts | 222° |
| 2026-04-27 09:56 | 42.48565 | 17.84266 | 36162 ft | 432 kts | 222° |
| 2026-04-27 09:56 | 42.43865 | 17.79200 | 36162 ft | 432 kts | 221° |
| 2026-04-27 09:57 | 42.39159 | 17.74146 | 36290 ft | 431 kts | 221° |
| 2026-04-27 09:57 | 42.36813 | 17.71625 | 36552 ft | 431 kts | 221° |
| 2026-04-27 09:57 | 42.34466 | 17.69105 | 36810 ft | 431 kts | 221° |
| 2026-04-27 09:58 | 42.32121 | 17.66590 | 37065 ft | 431 kts | 221° |
| 2026-04-27 09:58 | 42.29773 | 17.64075 | 37149 ft | 430 kts | 221° |
| 2026-04-27 09:58 | 42.25082 | 17.59057 | 37150 ft | 430 kts | 221° |
| 2026-04-27 09:59 | 42.20387 | 17.54046 | 37158 ft | 430 kts | 221° |
| 2026-04-27 09:59 | 42.15661 | 17.49008 | 37158 ft | 438 kts | 221° |
| 2026-04-27 10:00 | 42.10853 | 17.43900 | 37161 ft | 441 kts | 221° |
| 2026-04-27 10:00 | 42.06026 | 17.38781 | 37162 ft | 442 kts | 221° |
| 2026-04-27 10:01 | 42.01198 | 17.33661 | 37160 ft | 442 kts | 221° |
| 2026-04-27 10:01 | 41.96361 | 17.28558 | 37160 ft | 442 kts | 221° |
| 2026-04-27 10:02 | 41.91625 | 17.23319 | 37148 ft | 441 kts | 223° |
| 2026-04-27 10:02 | 41.89018 | 17.21122 | 37166 ft | 447 kts | 208° |
| 2026-04-27 10:02 | 41.86191 | 17.19361 | 37159 ft | 448 kts | 208° |
| 2026-04-27 10:03 | 41.80516 | 17.15884 | 37157 ft | 448 kts | 208° |
| 2026-04-27 10:03 | 41.74871 | 17.12329 | 37157 ft | 448 kts | 209° |
| 2026-04-27 10:04 | 41.69246 | 17.08718 | 37160 ft | 449 kts | 209° |
| 2026-04-27 10:04 | 41.63620 | 17.05099 | 37157 ft | 449 kts | 209° |
| 2026-04-27 10:05 | 41.57991 | 17.01508 | 37162 ft | 448 kts | 209° |
| 2026-04-27 10:05 | 41.52356 | 16.97931 | 37159 ft | 448 kts | 209° |
| 2026-04-27 10:06 | 41.46719 | 16.94365 | 37159 ft | 448 kts | 209° |
| 2026-04-27 10:06 | 41.41083 | 16.90805 | 37154 ft | 448 kts | 208° |
| 2026-04-27 10:07 | 41.35446 | 16.87246 | 37151 ft | 448 kts | 209° |
| 2026-04-27 10:07 | 41.29803 | 16.83687 | 37164 ft | 449 kts | 209° |
| 2026-04-27 10:08 | 41.24160 | 16.80132 | 37166 ft | 449 kts | 208° |
| 2026-04-27 10:08 | 41.18510 | 16.76589 | 37165 ft | 449 kts | 208° |
| 2026-04-27 10:09 | 41.12860 | 16.73047 | 37167 ft | 449 kts | 208° |
| 2026-04-27 10:09 | 41.07205 | 16.69511 | 37166 ft | 450 kts | 208° |
| 2026-04-27 10:10 | 41.01544 | 16.65979 | 37155 ft | 449 kts | 208° |
| 2026-04-27 10:10 | 40.95888 | 16.62448 | 37144 ft | 450 kts | 208° |
| 2026-04-27 10:11 | 40.90225 | 16.58918 | 37149 ft | 450 kts | 208° |
| 2026-04-27 10:11 | 40.84559 | 16.55404 | 37144 ft | 450 kts | 208° |
| 2026-04-27 10:12 | 40.78883 | 16.51896 | 37134 ft | 450 kts | 208° |
| 2026-04-27 10:12 | 40.73220 | 16.48393 | 37147 ft | 450 kts | 208° |
| 2026-04-27 10:13 | 40.67551 | 16.44882 | 37166 ft | 450 kts | 208° |
| 2026-04-27 10:13 | 40.61883 | 16.41385 | 37178 ft | 447 kts | 208° |
| 2026-04-27 10:14 | 40.56308 | 16.37968 | 37194 ft | 440 kts | 208° |
| 2026-04-27 10:14 | 40.50773 | 16.34569 | 37196 ft | 439 kts | 208° |
| 2026-04-27 10:15 | 40.45232 | 16.31177 | 37194 ft | 439 kts | 208° |
| 2026-04-27 10:15 | 40.39723 | 16.27812 | 37176 ft | 440 kts | 208° |
| 2026-04-27 10:16 | 40.34174 | 16.24425 | 37170 ft | 440 kts | 208° |
| 2026-04-27 10:16 | 40.28631 | 16.21033 | 37154 ft | 440 kts | 208° |
| 2026-04-27 10:17 | 40.23043 | 16.17627 | 37151 ft | 440 kts | 208° |
| 2026-04-27 10:17 | 40.17529 | 16.14280 | 37152 ft | 440 kts | 207° |
| 2026-04-27 10:18 | 40.11974 | 16.10917 | 37158 ft | 440 kts | 207° |
| 2026-04-27 10:18 | 40.06417 | 16.07551 | 37158 ft | 440 kts | 207° |
| 2026-04-27 10:19 | 40.00863 | 16.04193 | 37166 ft | 440 kts | 207° |
| 2026-04-27 10:19 | 39.95308 | 16.00843 | 37171 ft | 440 kts | 207° |
| 2026-04-27 10:20 | 39.89753 | 15.97509 | 37172 ft | 439 kts | 207° |
| 2026-04-27 10:20 | 39.84201 | 15.94177 | 37171 ft | 439 kts | 207° |
| 2026-04-27 10:21 | 39.78653 | 15.90842 | 37173 ft | 439 kts | 207° |
| 2026-04-27 10:21 | 39.73108 | 15.87513 | 37178 ft | 439 kts | 207° |
| 2026-04-27 10:22 | 39.67559 | 15.84195 | 37180 ft | 439 kts | 207° |
| 2026-04-27 10:22 | 39.62008 | 15.80892 | 37183 ft | 439 kts | 207° |
| 2026-04-27 10:23 | 39.56454 | 15.77589 | 37188 ft | 439 kts | 207° |
| 2026-04-27 10:23 | 39.50898 | 15.74295 | 37188 ft | 439 kts | 207° |
| 2026-04-27 10:24 | 39.45342 | 15.71000 | 37182 ft | 439 kts | 207° |
| 2026-04-27 10:24 | 39.39791 | 15.67708 | 37181 ft | 439 kts | 207° |
| 2026-04-27 10:25 | 39.34242 | 15.64425 | 37188 ft | 438 kts | 207° |
| 2026-04-27 10:25 | 39.28696 | 15.61157 | 37190 ft | 438 kts | 207° |
| 2026-04-27 10:26 | 39.23150 | 15.57902 | 37178 ft | 438 kts | 207° |
| 2026-04-27 10:26 | 39.17645 | 15.54663 | 37184 ft | 437 kts | 207° |
| 2026-04-27 10:27 | 39.12112 | 15.51406 | 37178 ft | 437 kts | 207° |
| 2026-04-27 10:27 | 39.06578 | 15.48159 | 37190 ft | 437 kts | 207° |
| 2026-04-27 10:28 | 39.01043 | 15.44922 | 37182 ft | 437 kts | 207° |
| 2026-04-27 10:28 | 38.95515 | 15.41690 | 37181 ft | 436 kts | 208° |
| 2026-04-27 10:29 | 38.90001 | 15.38468 | 37190 ft | 435 kts | 208° |
| 2026-04-27 10:29 | 38.84483 | 15.35256 | 37185 ft | 435 kts | 207° |
| 2026-04-27 10:30 | 38.78961 | 15.32056 | 37188 ft | 435 kts | 207° |
| 2026-04-27 10:30 | 38.73446 | 15.28869 | 37189 ft | 435 kts | 208° |
| 2026-04-27 10:31 | 38.67934 | 15.25677 | 37170 ft | 435 kts | 208° |
| 2026-04-27 10:31 | 38.62424 | 15.22489 | 37189 ft | 435 kts | 208° |
| 2026-04-27 10:32 | 38.56908 | 15.19304 | 37170 ft | 435 kts | 208° |
| 2026-04-27 10:32 | 38.51398 | 15.16131 | 37174 ft | 434 kts | 208° |
| 2026-04-27 10:33 | 38.45890 | 15.12957 | 37172 ft | 434 kts | 208° |
| 2026-04-27 10:33 | 38.40379 | 15.09789 | 37168 ft | 434 kts | 208° |
| 2026-04-27 10:34 | 38.35800 | 15.07158 | 37153 ft | 434 kts | 208° |
| 2026-04-27 10:34 | 38.29416 | 15.03494 | 37163 ft | 433 kts | 208° |
| 2026-04-27 10:35 | 38.23922 | 15.00367 | 37155 ft | 432 kts | 208° |
| 2026-04-27 10:35 | 38.18429 | 14.97242 | 37155 ft | 433 kts | 208° |
| 2026-04-27 10:36 | 38.13827 | 14.94623 | 37149 ft | 432 kts | 208° |
| 2026-04-27 10:36 | 38.08354 | 14.91496 | 37150 ft | 431 kts | 208° |
| 2026-04-27 10:37 | 38.02917 | 14.88415 | 37149 ft | 431 kts | 208° |
| 2026-04-27 10:37 | 37.97439 | 14.85328 | 37144 ft | 431 kts | 208° |
| 2026-04-27 10:38 | 37.91966 | 14.82232 | 37140 ft | 430 kts | 208° |
| 2026-04-27 10:38 | 37.86505 | 14.79136 | 37133 ft | 430 kts | 208° |
| 2026-04-27 10:39 | 37.81045 | 14.76051 | 37125 ft | 430 kts | 208° |
| 2026-04-27 10:39 | 37.75585 | 14.72979 | 37124 ft | 429 kts | 208° |
| 2026-04-27 10:40 | 37.70119 | 14.69906 | 37113 ft | 430 kts | 208° |
| 2026-04-27 10:40 | 37.64638 | 14.66830 | 37119 ft | 432 kts | 208° |
| 2026-04-27 10:41 | 37.59148 | 14.63756 | 37122 ft | 432 kts | 208° |
| 2026-04-27 10:41 | 37.53651 | 14.60682 | 36918 ft | 433 kts | 208° |
| 2026-04-27 10:42 | 37.50869 | 14.59127 | 35927 ft | 442 kts | 208° |
| 2026-04-27 10:42 | 37.48064 | 14.57563 | 35564 ft | 436 kts | 208° |
| 2026-04-27 10:42 | 37.45327 | 14.56044 | 35466 ft | 424 kts | 208° |
| 2026-04-27 10:42 | 37.42664 | 14.54567 | 35372 ft | 413 kts | 208° |
| 2026-04-27 10:43 | 37.40075 | 14.53129 | 35278 ft | 401 kts | 208° |
| 2026-04-27 10:43 | 37.37545 | 14.51720 | 35183 ft | 396 kts | 208° |
| 2026-04-27 10:43 | 37.32395 | 14.48834 | 34723 ft | 420 kts | 208° |
| 2026-04-27 10:44 | 37.29692 | 14.47318 | 34243 ft | 429 kts | 207° |
| 2026-04-27 10:44 | 37.26955 | 14.45792 | 33698 ft | 432 kts | 207° |
| 2026-04-27 10:44 | 37.24201 | 14.44264 | 32919 ft | 434 kts | 207° |
| 2026-04-27 10:44 | 37.21350 | 14.42960 | 32134 ft | 440 kts | 198° |
| 2026-04-27 10:45 | 37.18317 | 14.42283 | 31381 ft | 446 kts | 188° |
| 2026-04-27 10:45 | 37.15216 | 14.41996 | 30638 ft | 448 kts | 188° |
| 2026-04-27 10:45 | 37.12105 | 14.41712 | 29865 ft | 448 kts | 188° |
| 2026-04-27 10:45 | 37.08993 | 14.41427 | 29033 ft | 449 kts | 188° |
| 2026-04-27 10:46 | 37.05882 | 14.41135 | 28200 ft | 448 kts | 188° |
| 2026-04-27 10:46 | 37.02785 | 14.40838 | 27511 ft | 445 kts | 188° |
| 2026-04-27 10:46 | 36.99714 | 14.40545 | 26871 ft | 441 kts | 188° |
| 2026-04-27 10:46 | 36.96669 | 14.40256 | 26235 ft | 437 kts | 188° |
| 2026-04-27 10:47 | 36.93648 | 14.39970 | 25631 ft | 434 kts | 188° |
| 2026-04-27 10:47 | 36.90649 | 14.39690 | 24962 ft | 432 kts | 188° |
| 2026-04-27 10:47 | 36.87653 | 14.39410 | 24258 ft | 431 kts | 188° |
| 2026-04-27 10:47 | 36.84699 | 14.38930 | 23536 ft | 426 kts | 194° |
| 2026-04-27 10:48 | 36.81787 | 14.38263 | 22729 ft | 425 kts | 194° |
| 2026-04-27 10:48 | 36.78887 | 14.37596 | 21942 ft | 423 kts | 194° |
| 2026-04-27 10:48 | 36.75997 | 14.36929 | 21172 ft | 422 kts | 194° |
| 2026-04-27 10:48 | 36.73119 | 14.36267 | 20432 ft | 420 kts | 194° |
| 2026-04-27 10:49 | 36.70248 | 14.35611 | 19711 ft | 419 kts | 194° |
| 2026-04-27 10:49 | 36.67386 | 14.34961 | 19028 ft | 417 kts | 194° |
| 2026-04-27 10:49 | 36.64546 | 14.34314 | 18452 ft | 413 kts | 194° |
| 2026-04-27 10:49 | 36.61729 | 14.33675 | 17778 ft | 410 kts | 194° |
| 2026-04-27 10:50 | 36.58922 | 14.33039 | 17038 ft | 409 kts | 194° |
| 2026-04-27 10:50 | 36.56122 | 14.32402 | 16325 ft | 408 kts | 194° |
| 2026-04-27 10:50 | 36.53332 | 14.31766 | 15631 ft | 407 kts | 194° |
| 2026-04-27 10:50 | 36.50554 | 14.31134 | 14952 ft | 405 kts | 194° |
| 2026-04-27 10:51 | 36.47791 | 14.30506 | 14346 ft | 401 kts | 194° |
| 2026-04-27 10:51 | 36.45058 | 14.29886 | 13732 ft | 397 kts | 194° |
| 2026-04-27 10:51 | 36.42352 | 14.29270 | 13082 ft | 393 kts | 194° |
| 2026-04-27 10:51 | 36.39679 | 14.28660 | 12447 ft | 389 kts | 194° |
| 2026-04-27 10:52 | 36.37032 | 14.28057 | 11813 ft | 384 kts | 194° |
| 2026-04-27 10:52 | 36.34427 | 14.27467 | 11309 ft | 373 kts | 194° |
| 2026-04-27 10:52 | 36.31957 | 14.26913 | 10853 ft | 351 kts | 194° |
| 2026-04-27 10:52 | 36.29592 | 14.26382 | 10254 ft | 339 kts | 194° |
| 2026-04-27 10:53 | 36.27304 | 14.25866 | 9630 ft | 330 kts | 194° |
| 2026-04-27 10:53 | 36.22933 | 14.24874 | 8563 ft | 309 kts | 193° |
| 2026-04-27 10:53 | 36.20851 | 14.24404 | 8066 ft | 300 kts | 193° |
| 2026-04-27 10:54 | 36.18826 | 14.23944 | 7573 ft | 292 kts | 193° |
| 2026-04-27 10:54 | 36.16855 | 14.23481 | 7113 ft | 284 kts | 193° |
| 2026-04-27 10:54 | 36.14950 | 14.23016 | 6756 ft | 274 kts | 193° |
| 2026-04-27 10:54 | 36.13114 | 14.22555 | 6418 ft | 264 kts | 193° |
| 2026-04-27 10:55 | 36.11357 | 14.22126 | 6167 ft | 251 kts | 193° |
| 2026-04-27 10:55 | 36.09683 | 14.21729 | 5915 ft | 239 kts | 189° |
| 2026-04-27 10:55 | 36.08069 | 14.21859 | 5665 ft | 229 kts | 168° |
| 2026-04-27 10:55 | 36.06564 | 14.22399 | 5411 ft | 222 kts | 160° |
| 2026-04-27 10:56 | 36.05278 | 14.23427 | 5173 ft | 222 kts | 137° |
| 2026-04-27 10:56 | 36.04186 | 14.24787 | 4928 ft | 222 kts | 135° |
| 2026-04-27 10:56 | 36.03106 | 14.26144 | 4679 ft | 221 kts | 136° |
| 2026-04-27 10:56 | 36.02025 | 14.27496 | 4440 ft | 222 kts | 136° |
| 2026-04-27 10:57 | 36.00938 | 14.28853 | 4182 ft | 222 kts | 136° |
| 2026-04-27 10:57 | 35.99860 | 14.30198 | 3931 ft | 219 kts | 136° |
| 2026-04-27 10:57 | 35.98806 | 14.31513 | 3767 ft | 209 kts | 136° |
| 2026-04-27 10:57 | 35.97816 | 14.32748 | 3588 ft | 198 kts | 137° |
| 2026-04-27 10:58 | 35.96840 | 14.33962 | 3375 ft | 203 kts | 137° |
| 2026-04-27 10:58 | 35.95834 | 14.35214 | 3100 ft | 208 kts | 137° |
| 2026-04-27 10:58 | 35.94806 | 14.36493 | 2812 ft | 211 kts | 137° |
| 2026-04-27 10:58 | 35.93785 | 14.37765 | 2536 ft | 205 kts | 136° |
| 2026-04-27 10:59 | 35.92813 | 14.38975 | 2278 ft | 192 kts | 137° |
| 2026-04-27 10:59 | 35.91917 | 14.40091 | 2031 ft | 172 kts | 136° |
| 2026-04-27 10:59 | 35.91113 | 14.41089 | 1834 ft | 154 kts | 137° |
| 2026-04-27 11:00 | 35.89686 | 14.42861 | 1416 ft | 142 kts | 137° |
| 2026-04-27 11:00 | 35.88995 | 14.43718 | 1240 ft | 139 kts | 137° |
| 2026-04-27 11:00 | 35.88317 | 14.44561 | 1036 ft | 138 kts | 137° |
| 2026-04-27 11:00 | 35.87645 | 14.45394 | 858 ft | 137 kts | 138° |
| 2026-04-27 11:01 | 35.86974 | 14.46228 | 682 ft | 136 kts | 137° |
| 2026-04-27 11:01 | 35.86317 | 14.47038 | 515 ft | 136 kts | 136° |
| 2026-04-27 11:01 | 35.85652 | 14.47864 | 321 ft | 136 kts | 136° |
| 2026-04-27 11:01 | 35.85031 | 14.48634 | 265 ft | 109 kts | 135° |
| 2026-04-27 11:02 | 35.84620 | 14.49143 | 259 ft | 51 kts | 135° |
| 2026-04-27 11:02 | 35.84463 | 14.49417 | 259 ft | 24 kts | 103° |
| 2026-04-27 11:02 | 35.84467 | 14.49560 | 259 ft | 13 kts | 38° |
| 2026-04-27 11:02 | 35.84536 | 14.49550 | 259 ft | 10 kts | 313° |
| 2026-04-27 11:03 | 35.84602 | 14.49552 | 259 ft | 11 kts | 41° |
| 2026-04-27 11:03 | 35.84679 | 14.49570 | 259 ft | 13 kts | 338° |
| 2026-04-27 11:03 | 35.84741 | 14.49502 | 259 ft | 12 kts | 302° |
| 2026-04-27 11:03 | 35.84814 | 14.49457 | 259 ft | 13 kts | 356° |
| 2026-04-27 11:04 | 35.84857 | 14.49455 | 259 ft | 1 kts | 359° |
| 2026-04-27 11:04 | 35.84863 | 14.49455 | 259 ft | 0 kts | 1° |